createdAt,value
2022-08-02T00:00:35.436Z,19.00
2022-08-02T00:03:03.677Z,19.00
2022-08-02T00:05:31.919Z,19.00
2022-08-02T00:08:01.546Z,19.00
2022-08-02T00:10:30.543Z,19.00
2022-08-02T00:12:59.003Z,19.00
2022-08-02T00:15:27.395Z,18.90
2022-08-02T00:17:55.699Z,18.90
2022-08-02T00:20:23.917Z,18.90
2022-08-02T00:22:52.147Z,18.90
2022-08-02T00:25:22.039Z,18.80
2022-08-02T00:27:50.351Z,18.80
2022-08-02T00:30:18.562Z,18.70
2022-08-02T00:32:46.760Z,18.70
2022-08-02T00:35:15.508Z,18.70
2022-08-02T00:37:43.840Z,18.80
2022-08-02T00:40:13.030Z,18.80
2022-08-02T00:42:44.224Z,18.80
2022-08-02T00:45:12.576Z,18.80
2022-08-02T00:47:40.810Z,18.80
2022-08-02T00:50:10.025Z,18.80
2022-08-02T00:52:38.265Z,18.80
2022-08-02T00:55:07.881Z,18.90
2022-08-02T00:57:37.229Z,19.00
2022-08-02T01:00:08.926Z,19.00
2022-08-02T01:02:37.249Z,19.00
2022-08-02T01:05:05.948Z,19.10
2022-08-02T01:07:34.192Z,19.10
2022-08-02T01:10:02.756Z,19.00
2022-08-02T01:12:31.026Z,19.00
2022-08-02T01:15:03.972Z,19.00
2022-08-02T01:17:37.891Z,19.00
2022-08-02T01:20:13.331Z,19.00
2022-08-02T01:23:16.172Z,19.00
2022-08-02T01:25:57.846Z,19.00
2022-08-02T01:28:34.608Z,19.00
2022-08-02T01:31:05.709Z,19.00
2022-08-02T01:33:38.003Z,19.00
2022-08-02T01:36:07.397Z,19.00
2022-08-02T01:38:39.144Z,18.90
2022-08-02T01:41:08.197Z,19.00
2022-08-02T01:43:37.781Z,19.00
2022-08-02T01:46:05.982Z,19.00
2022-08-02T01:48:34.189Z,19.10
2022-08-02T01:51:02.422Z,19.10
2022-08-02T01:53:30.680Z,19.10
2022-08-02T01:56:00.118Z,19.20
2022-08-02T01:58:30.894Z,19.10
2022-08-02T02:01:00.940Z,19.10
2022-08-02T02:03:30.197Z,19.00
2022-08-02T02:05:59.062Z,19.00
2022-08-02T02:08:30.933Z,19.00
2022-08-02T02:12:08.695Z,18.90
2022-08-02T02:13:47.456Z,19.00
2022-08-02T02:16:18.461Z,18.90
2022-08-02T02:18:46.697Z,18.90
2022-08-02T02:21:16.654Z,18.80
2022-08-02T02:23:44.850Z,18.80
2022-08-02T02:26:14.911Z,18.70
2022-08-02T02:28:45.846Z,18.70
2022-08-02T02:31:17.992Z,18.80
2022-08-02T02:33:50.937Z,18.80
2022-08-02T02:36:20.369Z,18.80
2022-08-02T02:38:48.702Z,18.80
2022-08-02T02:41:16.965Z,18.80
2022-08-02T02:43:45.601Z,18.70
2022-08-02T02:46:13.780Z,18.60
2022-08-02T02:48:42.004Z,18.60
2022-08-02T02:51:14.075Z,18.60
2022-08-02T02:54:32.813Z,18.60
2022-08-02T02:56:30.906Z,18.60
2022-08-02T02:59:00.749Z,18.50
2022-08-02T03:01:55.473Z,18.40
2022-08-02T03:04:17.543Z,18.40
2022-08-02T03:06:47.190Z,18.30
2022-08-02T03:09:15.417Z,18.30
2022-08-02T03:11:43.716Z,18.40
2022-08-02T03:14:12.725Z,18.50
2022-08-02T03:16:45.049Z,18.60
2022-08-02T03:19:13.327Z,18.60
2022-08-02T03:21:42.500Z,18.60
2022-08-02T03:24:12.528Z,18.60
2022-08-02T03:26:40.890Z,18.60
2022-08-02T03:29:10.086Z,18.70
2022-08-02T03:31:40.624Z,18.60
2022-08-02T03:34:08.937Z,18.70
2022-08-02T03:36:37.120Z,18.70
2022-08-02T03:39:05.591Z,18.60
2022-08-02T03:41:37.348Z,18.60
2022-08-02T03:44:06.360Z,18.60
2022-08-02T03:46:34.623Z,18.60
2022-08-02T03:49:02.874Z,18.50
2022-08-02T03:51:31.131Z,18.50
2022-08-02T03:53:59.292Z,18.50
2022-08-02T03:56:27.520Z,18.50
2022-08-02T03:59:09.881Z,18.50
2022-08-02T04:01:38.043Z,18.50
2022-08-02T04:04:07.012Z,18.50
2022-08-02T04:06:35.439Z,18.40
2022-08-02T04:09:08.625Z,18.40
2022-08-02T04:11:37.926Z,18.30
2022-08-02T04:14:10.420Z,18.30
2022-08-02T04:16:43.679Z,18.40
2022-08-02T04:19:15.486Z,18.30
2022-08-02T04:21:51.882Z,18.30
2022-08-02T04:24:22.962Z,18.40
2022-08-02T04:26:54.656Z,18.40
2022-08-02T04:29:27.808Z,18.50
2022-08-02T04:31:56.057Z,18.50
2022-08-02T04:34:24.339Z,18.60
2022-08-02T04:36:52.552Z,18.60
2022-08-02T04:39:20.895Z,18.70
2022-08-02T04:41:49.106Z,18.70
2022-08-02T04:44:17.369Z,18.70
2022-08-02T04:46:47.048Z,18.70
2022-08-02T04:49:15.335Z,18.80
2022-08-02T04:51:44.384Z,18.90
2022-08-02T04:54:12.870Z,19.00
2022-08-02T04:56:41.219Z,19.00
2022-08-02T04:59:09.647Z,19.00
2022-08-02T05:01:39.280Z,19.10
2022-08-02T05:04:08.889Z,19.10
2022-08-02T05:06:37.107Z,19.10
2022-08-02T05:09:05.401Z,19.10
2022-08-02T05:11:36.383Z,19.10
2022-08-02T05:14:06.228Z,19.10
2022-08-02T05:16:35.254Z,19.20
2022-08-02T05:19:03.579Z,19.20
2022-08-02T05:21:33.221Z,19.30
2022-08-02T05:24:01.429Z,19.30
2022-08-02T05:26:29.637Z,19.30
2022-08-02T05:28:57.902Z,19.40
2022-08-02T05:31:26.518Z,19.40
2022-08-02T05:33:54.750Z,19.50
2022-08-02T05:36:23.073Z,19.50
2022-08-02T05:38:59.588Z,19.50
2022-08-02T05:41:33.122Z,19.60
2022-08-02T05:44:01.744Z,19.60
2022-08-02T05:46:29.963Z,19.70
2022-08-02T05:48:58.717Z,19.80
2022-08-02T05:51:37.103Z,19.80
2022-08-02T05:54:14.054Z,19.70
2022-08-02T05:56:47.899Z,19.70
2022-08-02T05:59:23.957Z,19.70
2022-08-02T06:01:54.954Z,19.80
2022-08-02T06:04:26.957Z,19.90
2022-08-02T06:06:57.210Z,19.90
2022-08-02T06:09:27.481Z,20.10
2022-08-02T06:12:02.622Z,20.20
2022-08-02T06:14:33.260Z,20.40
2022-08-02T06:17:02.160Z,20.60
2022-08-02T06:19:50.865Z,20.70
2022-08-02T06:22:42.131Z,20.90
2022-08-02T06:25:48.347Z,21.20
2022-08-02T06:27:59.960Z,21.50
2022-08-02T06:30:28.278Z,21.80
2022-08-02T06:32:56.491Z,21.90
2022-08-02T06:35:26.157Z,22.10
2022-08-02T06:37:59.051Z,22.20
2022-08-02T06:40:32.303Z,22.30
2022-08-02T06:43:10.144Z,22.40
2022-08-02T06:45:38.419Z,22.40
2022-08-02T06:48:07.827Z,22.40
2022-08-02T06:50:38.217Z,22.40
2022-08-02T06:53:06.556Z,22.40
2022-08-02T06:55:43.592Z,22.30
2022-08-02T06:58:13.301Z,22.30
2022-08-02T07:00:41.805Z,22.30
2022-08-02T07:03:10.091Z,22.20
2022-08-02T07:05:38.441Z,22.10
2022-08-02T07:08:06.736Z,22.20
2022-08-02T07:10:36.365Z,22.20
2022-08-02T07:13:04.614Z,22.30
2022-08-02T07:15:32.852Z,22.40
2022-08-02T07:18:01.127Z,22.40
2022-08-02T07:20:29.690Z,22.40
2022-08-02T07:22:57.910Z,22.50
2022-08-02T07:25:26.169Z,22.50
2022-08-02T07:28:23.650Z,22.50
2022-08-02T07:30:52.754Z,22.50
2022-08-02T07:33:37.395Z,22.50
2022-08-02T07:36:09.768Z,22.50
2022-08-02T07:38:51.261Z,22.50
2022-08-02T07:41:21.512Z,22.20
2022-08-02T07:43:52.753Z,22.00
2022-08-02T07:46:20.971Z,22.00
2022-08-02T07:48:49.353Z,21.90
2022-08-02T07:51:17.618Z,22.00
2022-08-02T07:53:50.787Z,22.10
2022-08-02T07:56:20.129Z,22.20
2022-08-02T07:58:48.689Z,22.30
2022-08-02T08:01:18.588Z,22.40
2022-08-02T08:03:47.018Z,22.50
2022-08-02T08:06:15.266Z,22.60
2022-08-02T08:08:44.652Z,22.70
2022-08-02T08:11:12.864Z,22.80
2022-08-02T08:13:41.093Z,23.00
2022-08-02T08:16:09.361Z,23.00
2022-08-02T08:18:38.941Z,23.00
2022-08-02T08:21:07.265Z,23.00
2022-08-02T08:23:36.245Z,22.90
2022-08-02T08:26:04.556Z,22.80
2022-08-02T08:28:32.816Z,22.70
2022-08-02T08:31:01.386Z,22.70
2022-08-02T08:33:29.731Z,22.70
2022-08-02T08:35:59.257Z,22.70
2022-08-02T08:38:31.862Z,22.80
2022-08-02T08:41:00.142Z,22.90
2022-08-02T08:43:28.429Z,23.00
2022-08-02T08:45:56.888Z,23.20
2022-08-02T08:48:31.204Z,23.40
2022-08-02T08:51:05.857Z,23.60
2022-08-02T08:53:36.889Z,23.80
2022-08-02T08:56:06.005Z,24.00
2022-08-02T08:58:34.281Z,24.10
2022-08-02T09:01:02.626Z,24.40
2022-08-02T09:03:34.071Z,24.50
2022-08-02T09:06:05.105Z,24.60
2022-08-02T09:08:33.424Z,24.70
2022-08-02T09:11:01.697Z,24.60
2022-08-02T09:13:44.906Z,24.40
2022-08-02T09:16:15.072Z,24.10
2022-08-02T09:18:46.145Z,23.90
2022-08-02T09:21:17.546Z,23.80
2022-08-02T09:23:46.938Z,23.70
2022-08-02T09:26:16.161Z,23.70
2022-08-02T09:28:46.525Z,23.70
2022-08-02T09:31:16.088Z,23.70
2022-08-02T09:33:45.554Z,23.70
2022-08-02T09:36:16.257Z,23.70
2022-08-02T09:38:55.689Z,23.80
2022-08-02T09:41:25.931Z,23.90
2022-08-02T09:44:04.325Z,24.10
2022-08-02T09:46:38.133Z,24.30
2022-08-02T09:49:09.478Z,24.40
2022-08-02T09:51:41.167Z,24.60
2022-08-02T09:54:11.866Z,24.80
2022-08-02T09:56:49.546Z,25.00
2022-08-02T09:59:18.731Z,25.20
2022-08-02T10:01:51.071Z,25.40
2022-08-02T10:04:28.595Z,25.50
2022-08-02T10:06:59.696Z,25.70
2022-08-02T10:09:28.782Z,25.90
2022-08-02T10:11:57.059Z,25.90
2022-08-02T10:14:25.255Z,26.00
2022-08-02T10:16:53.474Z,26.10
2022-08-02T10:20:02.373Z,26.20
2022-08-02T10:22:13.997Z,26.30
2022-08-02T10:24:47.654Z,26.40
2022-08-02T10:27:19.732Z,26.60
2022-08-02T10:29:54.762Z,26.80
2022-08-02T10:32:27.788Z,26.90
2022-08-02T10:34:58.127Z,26.80
2022-08-02T10:37:39.365Z,26.70
2022-08-02T10:40:23.024Z,26.60
2022-08-02T10:42:52.322Z,26.60
2022-08-02T10:45:24.116Z,26.60
2022-08-02T10:48:04.043Z,26.50
2022-08-02T10:50:57.074Z,26.60
2022-08-02T10:53:30.522Z,26.70
2022-08-02T10:56:00.186Z,26.80
2022-08-02T10:58:30.464Z,27.00
2022-08-02T11:00:59.458Z,27.20
2022-08-02T11:03:40.331Z,27.30
2022-08-02T11:06:25.318Z,27.40
2022-08-02T11:09:32.249Z,27.60
2022-08-02T11:12:05.813Z,27.70
2022-08-02T11:14:35.701Z,27.50
2022-08-02T11:17:14.843Z,27.50
2022-08-02T11:20:21.033Z,27.50
2022-08-02T11:22:50.437Z,27.50
2022-08-02T11:26:02.614Z,27.40
2022-08-02T11:28:27.145Z,27.30
2022-08-02T11:30:59.138Z,26.70
2022-08-02T11:33:33.027Z,26.50
2022-08-02T11:36:05.992Z,26.50
2022-08-02T11:38:34.225Z,26.20
2022-08-02T11:41:06.243Z,26.20
2022-08-02T11:43:38.425Z,26.20
2022-08-02T11:46:06.762Z,26.30
2022-08-02T11:48:36.130Z,26.30
2022-08-02T11:51:09.627Z,26.40
2022-08-02T11:53:49.558Z,26.60
2022-08-02T11:56:24.865Z,26.80
2022-08-02T11:59:05.034Z,27.00
2022-08-02T12:01:36.712Z,27.10
2022-08-02T12:04:14.371Z,27.20
2022-08-02T12:06:43.765Z,27.30
2022-08-02T12:09:18.052Z,27.40
2022-08-02T12:11:51.502Z,27.50
2022-08-02T12:14:20.219Z,27.60
2022-08-02T12:17:06.329Z,27.60
2022-08-02T12:19:34.673Z,27.60
2022-08-02T12:22:14.963Z,27.60
2022-08-02T12:24:46.659Z,27.60
2022-08-02T12:30:11.130Z,27.70
2022-08-02T12:32:39.604Z,27.90
2022-08-02T12:35:13.081Z,27.90
2022-08-02T12:37:42.581Z,28.00
2022-08-02T12:40:26.449Z,28.10
2022-08-02T12:42:58.501Z,28.20
2022-08-02T12:45:38.515Z,28.30
2022-08-02T12:48:10.966Z,28.20
2022-08-02T12:50:39.642Z,28.30
2022-08-02T12:53:09.614Z,28.30
2022-08-02T12:56:00.040Z,28.30
2022-08-02T12:58:30.122Z,28.30
2022-08-02T13:01:00.914Z,28.40
2022-08-02T13:04:10.898Z,28.40
2022-08-02T13:06:39.518Z,28.40
2022-08-02T13:09:14.016Z,28.40
2022-08-02T13:11:43.353Z,28.30
2022-08-02T13:14:12.534Z,28.30
2022-08-02T13:16:42.502Z,28.30
2022-08-02T13:19:10.712Z,28.10
2022-08-02T13:21:41.606Z,28.20
2022-08-02T13:24:40.547Z,28.30
2022-08-02T13:27:15.472Z,28.50
2022-08-02T13:29:43.638Z,28.50
2022-08-02T13:32:13.389Z,28.60
2022-08-02T13:34:41.840Z,28.70
2022-08-02T13:37:10.486Z,28.70
2022-08-02T13:39:38.728Z,28.80
2022-08-02T13:42:07.189Z,28.80
2022-08-02T13:44:35.489Z,28.90
2022-08-02T13:47:03.833Z,29.10
2022-08-02T13:49:50.859Z,29.20
2022-08-02T13:52:21.613Z,29.30
2022-08-02T13:54:49.940Z,29.40
2022-08-02T13:57:18.185Z,29.40
2022-08-02T13:59:57.317Z,29.40
2022-08-02T14:02:28.301Z,29.40
2022-08-02T14:04:58.233Z,29.20
2022-08-02T14:07:26.454Z,29.00
2022-08-02T14:09:54.669Z,29.00
2022-08-02T14:12:22.935Z,29.00
2022-08-02T14:14:51.682Z,29.00
2022-08-02T14:17:20.025Z,29.10
2022-08-02T14:19:48.270Z,29.20
2022-08-02T14:22:17.926Z,29.30
2022-08-02T14:24:46.192Z,29.40
2022-08-02T14:27:15.629Z,29.40
2022-08-02T14:29:43.850Z,29.40
2022-08-02T14:32:12.401Z,29.40
2022-08-02T14:34:40.890Z,29.40
2022-08-02T14:37:09.153Z,29.40
2022-08-02T14:39:43.066Z,29.40
2022-08-02T14:42:26.957Z,29.30
2022-08-02T14:44:55.340Z,29.20
2022-08-02T14:47:23.590Z,29.20
2022-08-02T14:49:51.850Z,29.20
2022-08-02T14:52:20.410Z,29.20
2022-08-02T14:54:49.972Z,29.10
2022-08-02T14:57:18.230Z,29.10
2022-08-02T14:59:47.310Z,29.20
2022-08-02T15:02:16.088Z,29.20
2022-08-02T15:04:44.599Z,29.30
2022-08-02T15:07:15.277Z,29.40
2022-08-02T15:09:43.616Z,29.50
2022-08-02T15:12:13.328Z,29.60
2022-08-02T15:14:41.707Z,29.60
2022-08-02T15:17:10.232Z,29.60
2022-08-02T15:19:57.845Z,29.60
2022-08-02T15:22:27.138Z,29.60
2022-08-02T15:24:57.128Z,29.50
2022-08-02T15:27:26.714Z,29.50
2022-08-02T15:30:00.262Z,29.50
2022-08-02T15:32:28.862Z,29.50
2022-08-02T15:34:57.196Z,29.50
2022-08-02T15:37:25.928Z,29.50
2022-08-02T15:39:59.872Z,29.60
2022-08-02T15:42:30.206Z,29.50
2022-08-02T15:45:00.134Z,29.50
2022-08-02T15:47:28.436Z,29.40
2022-08-02T15:49:56.780Z,29.40
2022-08-02T15:52:27.079Z,29.30
2022-08-02T15:54:55.773Z,29.30
2022-08-02T15:57:24.101Z,29.20
2022-08-02T15:59:54.281Z,29.10
2022-08-02T16:02:22.601Z,29.00
2022-08-02T16:04:50.805Z,29.00
2022-08-02T16:07:19.146Z,29.00
2022-08-02T16:09:47.335Z,29.00
2022-08-02T16:12:16.092Z,28.90
2022-08-02T16:14:45.709Z,28.90
2022-08-02T16:17:15.369Z,28.90
2022-08-02T16:20:03.864Z,28.80
2022-08-02T16:22:32.183Z,28.80
2022-08-02T16:25:00.566Z,28.70
2022-08-02T16:27:28.815Z,28.70
2022-08-02T16:29:58.997Z,28.70
2022-08-02T16:32:28.562Z,28.70
2022-08-02T16:35:07.661Z,28.70
2022-08-02T16:37:51.743Z,28.60
2022-08-02T16:40:21.355Z,28.60
2022-08-02T16:42:50.577Z,28.60
2022-08-02T16:45:20.955Z,28.50
2022-08-02T16:47:57.512Z,28.40
2022-08-02T16:50:29.455Z,28.40
2022-08-02T16:52:58.823Z,28.30
2022-08-02T16:55:30.459Z,28.30
2022-08-02T16:57:59.333Z,28.30
2022-08-02T17:00:27.591Z,28.30
2022-08-02T17:02:59.275Z,28.30
2022-08-02T17:05:38.219Z,28.30
2022-08-02T17:08:18.893Z,28.30
2022-08-02T17:10:47.279Z,28.20
2022-08-02T17:13:15.758Z,28.20
2022-08-02T17:16:01.219Z,28.20
2022-08-02T17:18:37.462Z,28.20
2022-08-02T17:21:10.994Z,28.20
2022-08-02T17:24:05.867Z,28.10
2022-08-02T17:26:28.525Z,28.00
2022-08-02T17:29:16.283Z,28.00
2022-08-02T17:32:02.566Z,27.90
2022-08-02T17:34:35.841Z,27.70
2022-08-02T17:37:05.738Z,27.70
2022-08-02T17:39:44.455Z,27.60
2022-08-02T17:42:24.799Z,27.50
2022-08-02T17:44:53.956Z,27.40
2022-08-02T17:47:22.339Z,27.30
2022-08-02T17:49:52.625Z,27.30
2022-08-02T17:52:51.813Z,27.20
2022-08-02T17:55:13.663Z,27.10
2022-08-02T17:57:57.992Z,27.00
2022-08-02T18:00:33.599Z,27.00
2022-08-02T18:05:55.100Z,26.80
2022-08-02T18:08:24.282Z,26.70
2022-08-02T18:10:53.490Z,26.60
2022-08-02T18:13:21.889Z,26.50
2022-08-02T18:15:52.236Z,26.50
2022-08-02T18:18:29.472Z,26.30
2022-08-02T18:21:15.594Z,26.30
2022-08-02T18:26:38.708Z,26.10
2022-08-02T18:29:08.493Z,26.00
2022-08-02T18:31:39.464Z,25.90
2022-08-02T18:34:08.139Z,25.80
2022-08-02T18:36:46.975Z,25.70
2022-08-02T18:39:16.530Z,25.60
2022-08-02T18:41:48.001Z,25.50
2022-08-02T18:44:16.720Z,25.40
2022-08-02T18:46:46.953Z,25.30
2022-08-02T18:49:17.805Z,25.20
2022-08-02T18:51:47.675Z,25.10
2022-08-02T18:54:16.283Z,25.00
2022-08-02T18:56:55.933Z,24.90
2022-08-02T18:59:25.716Z,24.80
2022-08-02T19:01:53.894Z,24.80
2022-08-02T19:04:26.801Z,24.70
2022-08-02T19:07:06.988Z,24.60
2022-08-02T19:09:40.089Z,24.50
2022-08-02T19:12:11.277Z,24.40
2022-08-02T19:14:40.224Z,24.40
2022-08-02T19:17:15.983Z,24.30
2022-08-02T19:19:56.745Z,24.20
2022-08-02T19:22:27.218Z,24.20
2022-08-02T19:25:01.472Z,24.10
2022-08-02T19:27:32.831Z,24.00
2022-08-02T19:30:03.036Z,24.00
2022-08-02T19:32:39.682Z,23.90
2022-08-02T19:35:19.271Z,23.80
2022-08-02T19:38:09.946Z,23.70
2022-08-02T19:40:38.939Z,23.60
2022-08-02T19:44:27.294Z,23.60
2022-08-02T19:45:57.555Z,23.50
2022-08-02T19:48:27.158Z,23.40
2022-08-02T19:51:00.670Z,23.40
2022-08-02T19:53:47.179Z,23.30
2022-08-02T19:56:20.820Z,23.20
2022-08-02T19:58:51.529Z,23.10
2022-08-02T20:01:25.337Z,23.10
2022-08-02T20:03:56.651Z,23.00
2022-08-02T20:06:29.831Z,23.00
2022-08-02T20:09:01.308Z,22.80
2022-08-02T20:11:34.762Z,22.80
2022-08-02T20:14:05.176Z,22.70
2022-08-02T20:16:33.455Z,22.70
2022-08-02T20:19:02.832Z,22.60
2022-08-02T20:21:35.748Z,22.60
2022-08-02T20:24:09.822Z,22.50
2022-08-02T20:26:47.430Z,22.50
2022-08-02T20:29:42.360Z,22.50
2022-08-02T20:32:06.197Z,22.50
2022-08-02T20:34:36.656Z,22.40
2022-08-02T20:39:54.904Z,22.30
2022-08-02T20:42:24.720Z,22.20
2022-08-02T20:44:55.349Z,22.20
2022-08-02T20:47:27.631Z,22.10
2022-08-02T20:50:15.395Z,22.10
2022-08-02T20:52:45.429Z,22.00
2022-08-02T20:55:17.682Z,22.00
2022-08-02T20:57:59.991Z,22.00
2022-08-02T21:00:30.114Z,21.90
2022-08-02T21:02:58.530Z,21.90
2022-08-02T21:05:54.112Z,21.80
2022-08-02T21:08:16.340Z,21.80
2022-08-02T21:10:51.790Z,21.70
2022-08-02T21:13:23.990Z,21.70
2022-08-02T21:15:53.543Z,21.60
2022-08-02T21:18:34.109Z,21.60
2022-08-02T21:21:10.301Z,21.50
2022-08-02T21:23:48.507Z,21.50
2022-08-02T21:26:25.650Z,21.40
2022-08-02T21:28:56.924Z,21.40
2022-08-02T21:31:29.827Z,21.30
2022-08-02T21:34:00.224Z,21.20
2022-08-02T21:36:31.751Z,21.20
2022-08-02T21:39:04.969Z,21.20
2022-08-02T21:41:38.459Z,21.10
2022-08-02T21:44:08.665Z,21.10
2022-08-02T21:46:36.982Z,21.00
2022-08-02T21:49:05.395Z,21.00
2022-08-02T21:51:34.210Z,20.90
2022-08-02T21:54:18.723Z,20.90
2022-08-02T21:56:49.596Z,20.80
2022-08-02T21:59:18.386Z,20.80
2022-08-02T22:01:56.497Z,20.70
2022-08-02T22:04:25.866Z,20.70
2022-08-02T22:06:54.936Z,20.70
2022-08-02T22:09:44.685Z,20.60
2022-08-02T22:12:16.654Z,20.60
2022-08-02T22:14:49.435Z,20.60
2022-08-02T22:17:52.006Z,20.50
2022-08-02T22:20:12.735Z,20.50
2022-08-02T22:22:41.957Z,20.50
2022-08-02T22:25:21.631Z,20.50
2022-08-02T22:28:37.412Z,20.50
2022-08-02T22:30:52.956Z,20.50
2022-08-02T22:34:00.834Z,20.50
2022-08-02T22:36:30.883Z,20.40
2022-08-02T22:38:59.214Z,20.40
2022-08-02T22:42:05.610Z,20.40
2022-08-02T22:44:18.790Z,20.30
2022-08-02T22:46:49.910Z,20.20
2022-08-02T22:49:37.721Z,20.20
2022-08-02T22:52:07.834Z,20.20
2022-08-02T22:54:36.308Z,20.20
2022-08-02T22:57:06.361Z,20.10
2022-08-02T22:58:42.980Z,26.90
2022-08-02T22:58:44.031Z,26.20
2022-08-02T22:58:55.827Z,22.30
2022-08-02T22:59:39.954Z,20.10
2022-08-02T23:02:08.623Z,20.10
2022-08-02T23:04:37.619Z,20.00
2022-08-02T23:07:05.820Z,20.00
2022-08-02T23:09:34.070Z,20.00
2022-08-02T23:12:02.373Z,19.90
2022-08-02T23:14:30.748Z,19.90
2022-08-02T23:17:17.645Z,19.80
2022-08-02T23:19:51.966Z,19.80
2022-08-02T23:22:20.527Z,19.80
2022-08-02T23:24:52.062Z,19.70
2022-08-02T23:27:21.398Z,19.70
2022-08-02T23:29:49.814Z,19.60
2022-08-02T23:32:22.783Z,19.60
2022-08-02T23:34:54.674Z,19.60
2022-08-02T23:37:23.630Z,19.60
2022-08-02T23:39:51.897Z,19.60
2022-08-02T23:42:20.219Z,19.50
2022-08-02T23:44:48.458Z,19.50
2022-08-02T23:47:18.063Z,19.50
2022-08-02T23:49:46.376Z,19.50
2022-08-02T23:52:14.841Z,19.50
2022-08-02T23:54:43.276Z,19.50
2022-08-02T23:57:21.016Z,19.40
2022-08-02T23:59:51.456Z,19.40
